Terminal Aerodrome Forecast
Issued by NWS

Home | Current Version | Previous Version | Text Only | Print | Product List | Glossary On
Versions: 1 2 3 4 5 6 7 8 9 10 11 12 13 14 15 16 17 18 19 20 21 22 23 24 25 26 27 28 29 30 31 32 33 34 35 36 37 38 39 40 41 42 43 44 45 46 47 48 49
000
FTUS45 KBOU 132324
TAFAPA
TAF
KAPA 132324Z 1400/1424 05009KT P6SM FEW150 SCT220
     FM140100 09011KT P6SM FEW140 SCT220
     FM140300 13009KT P6SM FEW140 SCT200
     FM140500 19007KT P6SM FEW140 SCT220
     FM141500 26005KT P6SM FEW140 BKN220
     FM142100 32008KT P6SM FEW080 BKN220=

USA.gov is the U.S. government's official web portal to all federal, state and local government web resources and services.